sensor_id;sensor_type;location;lat;lon;timestamp;P1;durP1;ratioP1;P2;durP2;ratioP2
69280;SDS011;56392;51.082;17.080;2022-12-18T00:03:08;36.37;;;11.43;;
69280;SDS011;56392;51.082;17.080;2022-12-18T00:13:57;32.10;;;10.70;;
69280;SDS011;56392;51.082;17.080;2022-12-18T00:19:21;39.40;;;11.23;;
69280;SDS011;56392;51.082;17.080;2022-12-18T00:24:46;32.67;;;10.18;;
69280;SDS011;56392;51.082;17.080;2022-12-18T00:30:10;32.13;;;9.63;;
69280;SDS011;56392;51.082;17.080;2022-12-18T00:35:33;34.03;;;11.00;;
69280;SDS011;56392;51.082;17.080;2022-12-18T00:40:58;33.35;;;9.80;;
69280;SDS011;56392;51.082;17.080;2022-12-18T00:46:21;37.13;;;10.87;;
69280;SDS011;56392;51.082;17.080;2022-12-18T00:51:44;30.67;;;9.05;;
69280;SDS011;56392;51.082;17.080;2022-12-18T00:57:08;36.53;;;11.20;;
69280;SDS011;56392;51.082;17.080;2022-12-18T01:02:31;31.55;;;8.90;;
69280;SDS011;56392;51.082;17.080;2022-12-18T01:07:54;31.73;;;9.27;;
69280;SDS011;56392;51.082;17.080;2022-12-18T01:13:19;35.87;;;9.90;;
69280;SDS011;56392;51.082;17.080;2022-12-18T01:18:42;35.38;;;10.18;;
69280;SDS011;56392;51.082;17.080;2022-12-18T01:24:05;38.10;;;10.63;;
69280;SDS011;56392;51.082;17.080;2022-12-18T01:29:30;36.15;;;10.88;;
69280;SDS011;56392;51.082;17.080;2022-12-18T01:34:53;36.67;;;10.40;;
69280;SDS011;56392;51.082;17.080;2022-12-18T01:40:16;36.77;;;11.10;;
69280;SDS011;56392;51.082;17.080;2022-12-18T01:45:41;37.28;;;10.18;;
69280;SDS011;56392;51.082;17.080;2022-12-18T01:51:04;34.63;;;10.77;;
69280;SDS011;56392;51.082;17.080;2022-12-18T01:56:30;34.80;;;11.07;;
69280;SDS011;56392;51.082;17.080;2022-12-18T02:01:54;34.15;;;9.60;;
69280;SDS011;56392;51.082;17.080;2022-12-18T02:07:20;30.53;;;9.00;;
69280;SDS011;56392;51.082;17.080;2022-12-18T02:12:49;33.70;;;10.50;;
69280;SDS011;56392;51.082;17.080;2022-12-18T02:18:20;34.03;;;9.40;;
69280;SDS011;56392;51.082;17.080;2022-12-18T02:23:47;38.50;;;10.20;;
69280;SDS011;56392;51.082;17.080;2022-12-18T02:29:20;40.33;;;10.55;;
69280;SDS011;56392;51.082;17.080;2022-12-18T02:34:48;35.17;;;10.17;;
69280;SDS011;56392;51.082;17.080;2022-12-18T02:40:13;33.10;;;10.55;;
69280;SDS011;56392;51.082;17.080;2022-12-18T02:45:47;35.83;;;10.83;;
69280;SDS011;56392;51.082;17.080;2022-12-18T02:51:14;38.25;;;11.50;;
69280;SDS011;56392;51.082;17.080;2022-12-18T02:56:45;31.98;;;10.75;;
69280;SDS011;56392;51.082;17.080;2022-12-18T03:02:17;37.20;;;10.63;;
69280;SDS011;56392;51.082;17.080;2022-12-18T03:07:46;33.95;;;10.90;;
69280;SDS011;56392;51.082;17.080;2022-12-18T03:13:13;34.13;;;10.27;;
69280;SDS011;56392;51.082;17.080;2022-12-18T03:18:41;34.00;;;9.88;;
69280;SDS011;56392;51.082;17.080;2022-12-18T03:24:08;31.55;;;10.43;;
69280;SDS011;56392;51.082;17.080;2022-12-18T03:29:33;33.23;;;10.07;;
69280;SDS011;56392;51.082;17.080;2022-12-18T03:35:02;33.92;;;10.35;;
69280;SDS011;56392;51.082;17.080;2022-12-18T03:40:29;31.97;;;10.03;;
69280;SDS011;56392;51.082;17.080;2022-12-18T03:46:02;36.08;;;10.25;;
69280;SDS011;56392;51.082;17.080;2022-12-18T03:51:34;33.63;;;10.20;;
69280;SDS011;56392;51.082;17.080;2022-12-18T03:57:03;35.87;;;10.00;;
69280;SDS011;56392;51.082;17.080;2022-12-18T04:02:34;32.90;;;9.48;;
69280;SDS011;56392;51.082;17.080;2022-12-18T04:08:02;31.50;;;11.27;;
69280;SDS011;56392;51.082;17.080;2022-12-18T04:13:27;29.77;;;9.60;;
69280;SDS011;56392;51.082;17.080;2022-12-18T04:18:51;31.23;;;10.35;;
69280;SDS011;56392;51.082;17.080;2022-12-18T04:24:15;30.13;;;9.90;;
69280;SDS011;56392;51.082;17.080;2022-12-18T04:29:38;30.80;;;9.75;;
69280;SDS011;56392;51.082;17.080;2022-12-18T04:35:02;30.00;;;10.83;;
69280;SDS011;56392;51.082;17.080;2022-12-18T04:40:29;32.95;;;9.82;;
69280;SDS011;56392;51.082;17.080;2022-12-18T04:45:52;35.55;;;10.48;;
69280;SDS011;56392;51.082;17.080;2022-12-18T04:51:15;34.13;;;10.17;;
69280;SDS011;56392;51.082;17.080;2022-12-18T04:56:39;33.83;;;9.48;;
69280;SDS011;56392;51.082;17.080;2022-12-18T05:02:02;36.50;;;10.13;;
69280;SDS011;56392;51.082;17.080;2022-12-18T05:07:25;38.20;;;11.13;;
69280;SDS011;56392;51.082;17.080;2022-12-18T05:12:49;32.50;;;10.32;;
69280;SDS011;56392;51.082;17.080;2022-12-18T05:18:21;34.37;;;10.13;;
69280;SDS011;56392;51.082;17.080;2022-12-18T05:23:44;35.80;;;9.98;;
69280;SDS011;56392;51.082;17.080;2022-12-18T05:29:09;32.33;;;9.77;;
69280;SDS011;56392;51.082;17.080;2022-12-18T05:34:33;33.38;;;10.75;;
69280;SDS011;56392;51.082;17.080;2022-12-18T05:39:56;27.52;;;9.70;;
69280;SDS011;56392;51.082;17.080;2022-12-18T05:45:20;32.23;;;10.27;;
69280;SDS011;56392;51.082;17.080;2022-12-18T05:50:44;33.83;;;10.95;;
69280;SDS011;56392;51.082;17.080;2022-12-18T05:56:09;34.57;;;10.60;;
69280;SDS011;56392;51.082;17.080;2022-12-18T06:01:35;35.97;;;11.50;;
69280;SDS011;56392;51.082;17.080;2022-12-18T06:06:58;36.30;;;11.23;;
69280;SDS011;56392;51.082;17.080;2022-12-18T06:12:25;41.90;;;12.47;;
69280;SDS011;56392;51.082;17.080;2022-12-18T06:17:49;43.70;;;14.30;;
69280;SDS011;56392;51.082;17.080;2022-12-18T06:23:12;41.50;;;13.43;;
69280;SDS011;56392;51.082;17.080;2022-12-18T06:28:35;42.15;;;14.77;;
69280;SDS011;56392;51.082;17.080;2022-12-18T06:33:59;43.03;;;14.13;;
69280;SDS011;56392;51.082;17.080;2022-12-18T06:39:26;39.90;;;14.40;;
69280;SDS011;56392;51.082;17.080;2022-12-18T06:44:49;47.30;;;13.63;;
69280;SDS011;56392;51.082;17.080;2022-12-18T06:50:14;47.00;;;13.67;;
69280;SDS011;56392;51.082;17.080;2022-12-18T06:55:37;44.50;;;14.68;;
69280;SDS011;56392;51.082;17.080;2022-12-18T07:01:00;44.97;;;14.68;;
69280;SDS011;56392;51.082;17.080;2022-12-18T07:06:25;49.37;;;15.47;;
69280;SDS011;56392;51.082;17.080;2022-12-18T07:11:48;42.25;;;12.57;;
69280;SDS011;56392;51.082;17.080;2022-12-18T07:17:11;47.57;;;15.23;;
69280;SDS011;56392;51.082;17.080;2022-12-18T07:22:35;44.22;;;13.93;;
69280;SDS011;56392;51.082;17.080;2022-12-18T07:27:58;54.45;;;16.33;;
69280;SDS011;56392;51.082;17.080;2022-12-18T07:33:21;54.77;;;17.40;;
69280;SDS011;56392;51.082;17.080;2022-12-18T07:38:47;50.17;;;17.17;;
69280;SDS011;56392;51.082;17.080;2022-12-18T07:44:12;49.10;;;16.70;;
69280;SDS011;56392;51.082;17.080;2022-12-18T07:49:36;42.22;;;14.50;;
69280;SDS011;56392;51.082;17.080;2022-12-18T07:55:00;43.70;;;13.98;;
69280;SDS011;56392;51.082;17.080;2022-12-18T08:00:23;48.63;;;16.03;;
69280;SDS011;56392;51.082;17.080;2022-12-18T08:05:46;31.05;;;9.20;;
69280;SDS011;56392;51.082;17.080;2022-12-18T08:11:13;39.00;;;12.13;;
69280;SDS011;56392;51.082;17.080;2022-12-18T08:16:36;37.63;;;13.05;;
69280;SDS011;56392;51.082;17.080;2022-12-18T08:21:59;35.97;;;11.75;;
69280;SDS011;56392;51.082;17.080;2022-12-18T08:27:23;33.80;;;11.20;;
69280;SDS011;56392;51.082;17.080;2022-12-18T08:32:46;36.60;;;11.48;;
69280;SDS011;56392;51.082;17.080;2022-12-18T08:38:10;40.57;;;12.70;;
69280;SDS011;56392;51.082;17.080;2022-12-18T08:43:34;36.25;;;11.90;;
69280;SDS011;56392;51.082;17.080;2022-12-18T08:49:15;38.10;;;12.55;;
69280;SDS011;56392;51.082;17.080;2022-12-18T08:54:38;33.83;;;12.13;;
69280;SDS011;56392;51.082;17.080;2022-12-18T09:00:03;37.33;;;12.27;;
69280;SDS011;56392;51.082;17.080;2022-12-18T09:05:27;38.00;;;12.50;;
69280;SDS011;56392;51.082;17.080;2022-12-18T09:10:51;39.10;;;12.73;;
69280;SDS011;56392;51.082;17.080;2022-12-18T09:16:16;38.25;;;12.23;;
69280;SDS011;56392;51.082;17.080;2022-12-18T09:21:39;34.77;;;12.37;;
69280;SDS011;56392;51.082;17.080;2022-12-18T09:27:02;40.75;;;12.40;;
69280;SDS011;56392;51.082;17.080;2022-12-18T09:32:27;31.90;;;11.43;;
69280;SDS011;56392;51.082;17.080;2022-12-18T09:37:50;29.65;;;9.07;;
69280;SDS011;56392;51.082;17.080;2022-12-18T09:43:13;41.58;;;11.93;;
69280;SDS011;56392;51.082;17.080;2022-12-18T09:48:42;39.77;;;11.17;;
69280;SDS011;56392;51.082;17.080;2022-12-18T09:54:11;44.13;;;13.20;;
69280;SDS011;56392;51.082;17.080;2022-12-18T09:59:39;36.93;;;12.30;;
69280;SDS011;56392;51.082;17.080;2022-12-18T10:05:07;32.05;;;10.82;;
69280;SDS011;56392;51.082;17.080;2022-12-18T10:10:36;39.88;;;13.45;;
69280;SDS011;56392;51.082;17.080;2022-12-18T10:16:08;39.07;;;11.67;;
69280;SDS011;56392;51.082;17.080;2022-12-18T10:21:41;34.72;;;11.55;;
69280;SDS011;56392;51.082;17.080;2022-12-18T10:27:11;37.90;;;12.03;;
69280;SDS011;56392;51.082;17.080;2022-12-18T10:32:37;40.60;;;12.98;;
69280;SDS011;56392;51.082;17.080;2022-12-18T10:38:03;31.23;;;9.88;;
69280;SDS011;56392;51.082;17.080;2022-12-18T10:43:29;33.93;;;10.43;;
69280;SDS011;56392;51.082;17.080;2022-12-18T10:48:53;37.97;;;11.50;;
69280;SDS011;56392;51.082;17.080;2022-12-18T10:54:20;48.67;;;14.17;;
69280;SDS011;56392;51.082;17.080;2022-12-18T10:59:51;46.47;;;13.68;;
69280;SDS011;56392;51.082;17.080;2022-12-18T11:05:23;43.28;;;14.40;;
69280;SDS011;56392;51.082;17.080;2022-12-18T11:10:50;43.63;;;12.37;;
69280;SDS011;56392;51.082;17.080;2022-12-18T11:16:17;48.38;;;14.32;;
69280;SDS011;56392;51.082;17.080;2022-12-18T11:21:41;44.60;;;15.80;;
69280;SDS011;56392;51.082;17.080;2022-12-18T11:27:06;53.70;;;15.50;;
69280;SDS011;56392;51.082;17.080;2022-12-18T11:32:40;28.10;;;8.70;;
69280;SDS011;56392;51.082;17.080;2022-12-18T11:38:06;44.63;;;13.50;;
69280;SDS011;56392;51.082;17.080;2022-12-18T11:43:44;34.42;;;10.38;;
69280;SDS011;56392;51.082;17.080;2022-12-18T11:49:12;36.43;;;12.83;;
69280;SDS011;56392;51.082;17.080;2022-12-18T11:54:41;42.65;;;13.90;;
69280;SDS011;56392;51.082;17.080;2022-12-18T12:00:09;52.30;;;14.32;;
69280;SDS011;56392;51.082;17.080;2022-12-18T12:05:39;44.37;;;13.63;;
69280;SDS011;56392;51.082;17.080;2022-12-18T12:11:13;49.22;;;16.55;;
69280;SDS011;56392;51.082;17.080;2022-12-18T12:16:47;39.03;;;12.20;;
69280;SDS011;56392;51.082;17.080;2022-12-18T12:22:18;33.97;;;10.45;;
69280;SDS011;56392;51.082;17.080;2022-12-18T12:27:50;35.85;;;11.02;;
69280;SDS011;56392;51.082;17.080;2022-12-18T12:33:27;46.03;;;14.13;;
69280;SDS011;56392;51.082;17.080;2022-12-18T12:38:59;42.65;;;14.60;;
69280;SDS011;56392;51.082;17.080;2022-12-18T12:44:28;44.43;;;14.63;;
69280;SDS011;56392;51.082;17.080;2022-12-18T12:49:57;58.17;;;18.13;;
69280;SDS011;56392;51.082;17.080;2022-12-18T12:55:22;58.30;;;16.40;;
69280;SDS011;56392;51.082;17.080;2022-12-18T13:00:49;46.27;;;13.97;;
69280;SDS011;56392;51.082;17.080;2022-12-18T13:06:23;56.25;;;15.93;;
69280;SDS011;56392;51.082;17.080;2022-12-18T13:11:54;57.23;;;16.43;;
69280;SDS011;56392;51.082;17.080;2022-12-18T13:17:42;51.88;;;14.15;;
69280;SDS011;56392;51.082;17.080;2022-12-18T13:23:23;50.90;;;16.48;;
69280;SDS011;56392;51.082;17.080;2022-12-18T13:28:51;42.43;;;13.10;;
69280;SDS011;56392;51.082;17.080;2022-12-18T13:34:16;51.90;;;16.15;;
69280;SDS011;56392;51.082;17.080;2022-12-18T13:39:42;47.33;;;15.67;;
69280;SDS011;56392;51.082;17.080;2022-12-18T13:51:04;39.50;;;12.90;;
69280;SDS011;56392;51.082;17.080;2022-12-18T13:56:31;59.30;;;18.93;;
69280;SDS011;56392;51.082;17.080;2022-12-18T14:01:56;47.45;;;15.75;;
69280;SDS011;56392;51.082;17.080;2022-12-18T14:07:20;49.30;;;15.80;;
69280;SDS011;56392;51.082;17.080;2022-12-18T14:12:47;41.88;;;13.20;;
69280;SDS011;56392;51.082;17.080;2022-12-18T14:18:21;44.40;;;13.70;;
69280;SDS011;56392;51.082;17.080;2022-12-18T14:23:47;39.70;;;12.83;;
69280;SDS011;56392;51.082;17.080;2022-12-18T14:29:20;47.53;;;15.45;;
69280;SDS011;56392;51.082;17.080;2022-12-18T14:34:45;65.03;;;19.37;;
69280;SDS011;56392;51.082;17.080;2022-12-18T14:40:11;41.75;;;12.68;;
69280;SDS011;56392;51.082;17.080;2022-12-18T14:45:40;49.08;;;14.18;;
69280;SDS011;56392;51.082;17.080;2022-12-18T14:51:06;58.30;;;17.70;;
69280;SDS011;56392;51.082;17.080;2022-12-18T14:56:41;52.00;;;15.07;;
69280;SDS011;56392;51.082;17.080;2022-12-18T15:02:10;61.83;;;16.57;;
69280;SDS011;56392;51.082;17.080;2022-12-18T15:07:41;53.83;;;15.70;;
69280;SDS011;56392;51.082;17.080;2022-12-18T15:13:06;57.15;;;17.35;;
69280;SDS011;56392;51.082;17.080;2022-12-18T15:18:33;51.33;;;15.27;;
69280;SDS011;56392;51.082;17.080;2022-12-18T15:24:03;54.58;;;17.30;;
69280;SDS011;56392;51.082;17.080;2022-12-18T15:29:27;44.73;;;13.23;;
69280;SDS011;56392;51.082;17.080;2022-12-18T15:34:51;55.55;;;16.08;;
69280;SDS011;56392;51.082;17.080;2022-12-18T15:40:25;54.60;;;17.48;;
69280;SDS011;56392;51.082;17.080;2022-12-18T15:45:48;51.93;;;16.10;;
69280;SDS011;56392;51.082;17.080;2022-12-18T15:51:13;50.22;;;14.65;;
69280;SDS011;56392;51.082;17.080;2022-12-18T15:56:39;63.53;;;18.60;;
69280;SDS011;56392;51.082;17.080;2022-12-18T16:02:20;45.35;;;13.68;;
69280;SDS011;56392;51.082;17.080;2022-12-18T16:07:46;55.25;;;16.98;;
69280;SDS011;56392;51.082;17.080;2022-12-18T16:13:09;69.97;;;20.27;;
69280;SDS011;56392;51.082;17.080;2022-12-18T16:18:33;68.18;;;19.20;;
69280;SDS011;56392;51.082;17.080;2022-12-18T16:23:57;23.87;;;8.93;;
69280;SDS011;56392;51.082;17.080;2022-12-18T16:29:23;53.10;;;18.08;;
69280;SDS011;56392;51.082;17.080;2022-12-18T16:34:48;67.82;;;20.08;;
69280;SDS011;56392;51.082;17.080;2022-12-18T16:40:14;53.40;;;16.30;;
69280;SDS011;56392;51.082;17.080;2022-12-18T16:45:38;57.75;;;18.50;;
69280;SDS011;56392;51.082;17.080;2022-12-18T16:51:02;47.87;;;14.47;;
69280;SDS011;56392;51.082;17.080;2022-12-18T16:56:27;58.45;;;16.85;;
69280;SDS011;56392;51.082;17.080;2022-12-18T17:01:51;24.13;;;7.20;;
69280;SDS011;56392;51.082;17.080;2022-12-18T17:07:14;51.20;;;16.83;;
69280;SDS011;56392;51.082;17.080;2022-12-18T17:12:39;53.33;;;17.08;;
69280;SDS011;56392;51.082;17.080;2022-12-18T17:18:03;57.73;;;17.77;;
69280;SDS011;56392;51.082;17.080;2022-12-18T17:23:26;55.47;;;17.05;;
69280;SDS011;56392;51.082;17.080;2022-12-18T17:28:51;69.05;;;19.30;;
69280;SDS011;56392;51.082;17.080;2022-12-18T17:34:15;44.77;;;15.03;;
69280;SDS011;56392;51.082;17.080;2022-12-18T17:39:38;45.75;;;13.70;;
69280;SDS011;56392;51.082;17.080;2022-12-18T17:45:02;53.57;;;17.80;;
69280;SDS011;56392;51.082;17.080;2022-12-18T17:50:27;61.95;;;19.88;;
69280;SDS011;56392;51.082;17.080;2022-12-18T17:55:52;68.45;;;19.67;;
69280;SDS011;56392;51.082;17.080;2022-12-18T18:01:18;45.97;;;13.87;;
69280;SDS011;56392;51.082;17.080;2022-12-18T18:06:43;68.97;;;21.27;;
69280;SDS011;56392;51.082;17.080;2022-12-18T18:12:06;64.03;;;20.00;;
69280;SDS011;56392;51.082;17.080;2022-12-18T18:17:54;69.90;;;22.00;;
69280;SDS011;56392;51.082;17.080;2022-12-18T18:23:22;52.55;;;15.27;;
69280;SDS011;56392;51.082;17.080;2022-12-18T18:28:45;66.37;;;19.27;;
69280;SDS011;56392;51.082;17.080;2022-12-18T18:34:10;54.10;;;14.93;;
69280;SDS011;56392;51.082;17.080;2022-12-18T18:39:36;48.80;;;14.30;;
69280;SDS011;56392;51.082;17.080;2022-12-18T18:44:59;54.65;;;14.95;;
69280;SDS011;56392;51.082;17.080;2022-12-18T18:50:23;68.35;;;19.83;;
69280;SDS011;56392;51.082;17.080;2022-12-18T18:55:46;59.87;;;17.10;;
69280;SDS011;56392;51.082;17.080;2022-12-18T19:01:10;55.60;;;16.85;;
69280;SDS011;56392;51.082;17.080;2022-12-18T19:06:37;77.07;;;23.53;;
69280;SDS011;56392;51.082;17.080;2022-12-18T19:12:01;92.10;;;26.02;;
69280;SDS011;56392;51.082;17.080;2022-12-18T19:17:42;99.53;;;27.98;;
69280;SDS011;56392;51.082;17.080;2022-12-18T19:23:07;92.47;;;24.30;;
69280;SDS011;56392;51.082;17.080;2022-12-18T19:28:30;78.03;;;21.35;;
69280;SDS011;56392;51.082;17.080;2022-12-18T19:33:53;93.20;;;25.23;;
69280;SDS011;56392;51.082;17.080;2022-12-18T19:39:18;61.58;;;19.88;;
69280;SDS011;56392;51.082;17.080;2022-12-18T19:44:41;79.20;;;23.90;;
69280;SDS011;56392;51.082;17.080;2022-12-18T19:50:04;71.30;;;22.50;;
69280;SDS011;56392;51.082;17.080;2022-12-18T19:55:29;73.35;;;22.52;;
69280;SDS011;56392;51.082;17.080;2022-12-18T20:00:54;78.93;;;24.67;;
69280;SDS011;56392;51.082;17.080;2022-12-18T20:06:18;88.65;;;26.10;;
69280;SDS011;56392;51.082;17.080;2022-12-18T20:11:46;76.32;;;22.67;;
69280;SDS011;56392;51.082;17.080;2022-12-18T20:17:09;81.20;;;23.17;;
69280;SDS011;56392;51.082;17.080;2022-12-18T20:22:33;85.68;;;24.15;;
69280;SDS011;56392;51.082;17.080;2022-12-18T20:27:57;77.23;;;22.07;;
69280;SDS011;56392;51.082;17.080;2022-12-18T20:33:20;95.63;;;26.92;;
69280;SDS011;56392;51.082;17.080;2022-12-18T20:38:43;97.22;;;26.27;;
69280;SDS011;56392;51.082;17.080;2022-12-18T20:44:10;106.17;;;29.63;;
69280;SDS011;56392;51.082;17.080;2022-12-18T20:49:34;107.30;;;29.42;;
69280;SDS011;56392;51.082;17.080;2022-12-18T20:54:57;108.70;;;30.40;;
69280;SDS011;56392;51.082;17.080;2022-12-18T21:00:22;116.80;;;32.88;;
69280;SDS011;56392;51.082;17.080;2022-12-18T21:05:45;121.30;;;33.55;;
69280;SDS011;56392;51.082;17.080;2022-12-18T21:11:12;123.10;;;32.27;;
69280;SDS011;56392;51.082;17.080;2022-12-18T21:16:58;105.45;;;29.52;;
69280;SDS011;56392;51.082;17.080;2022-12-18T21:22:23;104.57;;;30.17;;
69280;SDS011;56392;51.082;17.080;2022-12-18T21:27:46;93.55;;;25.58;;
69280;SDS011;56392;51.082;17.080;2022-12-18T21:33:11;105.82;;;27.65;;
69280;SDS011;56392;51.082;17.080;2022-12-18T21:38:34;93.13;;;26.17;;
69280;SDS011;56392;51.082;17.080;2022-12-18T21:43:57;83.85;;;25.33;;
69280;SDS011;56392;51.082;17.080;2022-12-18T21:49:30;73.15;;;25.08;;
69280;SDS011;56392;51.082;17.080;2022-12-18T21:54:54;113.45;;;30.00;;
69280;SDS011;56392;51.082;17.080;2022-12-18T22:00:17;56.78;;;15.38;;
69280;SDS011;56392;51.082;17.080;2022-12-18T22:05:42;107.37;;;28.73;;
69280;SDS011;56392;51.082;17.080;2022-12-18T22:11:05;90.78;;;26.33;;
69280;SDS011;56392;51.082;17.080;2022-12-18T22:16:28;66.85;;;20.30;;
69280;SDS011;56392;51.082;17.080;2022-12-18T22:21:54;101.90;;;28.15;;
69280;SDS011;56392;51.082;17.080;2022-12-18T22:27:17;103.45;;;25.48;;
69280;SDS011;56392;51.082;17.080;2022-12-18T22:32:40;37.90;;;10.97;;
69280;SDS011;56392;51.082;17.080;2022-12-18T22:38:04;77.35;;;20.55;;
69280;SDS011;56392;51.082;17.080;2022-12-18T22:43:28;97.32;;;26.83;;
69280;SDS011;56392;51.082;17.080;2022-12-18T22:48:51;103.50;;;28.65;;
69280;SDS011;56392;51.082;17.080;2022-12-18T22:54:15;100.85;;;28.55;;
69280;SDS011;56392;51.082;17.080;2022-12-18T22:59:39;36.53;;;14.03;;
69280;SDS011;56392;51.082;17.080;2022-12-18T23:05:02;110.20;;;29.50;;
69280;SDS011;56392;51.082;17.080;2022-12-18T23:10:30;47.45;;;15.55;;
69280;SDS011;56392;51.082;17.080;2022-12-18T23:15:53;116.30;;;31.73;;
69280;SDS011;56392;51.082;17.080;2022-12-18T23:21:17;121.75;;;32.35;;
69280;SDS011;56392;51.082;17.080;2022-12-18T23:26:43;120.60;;;30.30;;
69280;SDS011;56392;51.082;17.080;2022-12-18T23:32:06;106.30;;;30.05;;
69280;SDS011;56392;51.082;17.080;2022-12-18T23:37:29;107.20;;;32.17;;
69280;SDS011;56392;51.082;17.080;2022-12-18T23:42:54;94.30;;;27.45;;
69280;SDS011;56392;51.082;17.080;2022-12-18T23:48:17;81.43;;;25.48;;
69280;SDS011;56392;51.082;17.080;2022-12-18T23:53:41;107.60;;;31.10;;
69280;SDS011;56392;51.082;17.080;2022-12-18T23:59:06;116.63;;;32.55;;
